createdAt,value
2018-08-20T00:02:01.403Z,16.99
2018-08-20T00:04:42.326Z,17.13
2018-08-20T00:07:18.049Z,16.91
2018-08-20T00:09:54.471Z,16.77
2018-08-20T00:12:30.361Z,16.65
2018-08-20T00:15:06.826Z,16.60
2018-08-20T00:17:42.672Z,16.60
2018-08-20T00:20:18.519Z,16.57
2018-08-20T00:22:54.197Z,16.61
2018-08-20T00:25:30.029Z,16.77
2018-08-20T00:28:05.875Z,16.93
2018-08-20T00:30:43.300Z,16.93
2018-08-20T00:33:19.118Z,17.06
2018-08-20T00:35:54.848Z,17.08
2018-08-20T00:38:30.573Z,17.15
2018-08-20T00:41:06.415Z,17.20
2018-08-20T00:43:42.204Z,17.17
2018-08-20T00:46:18.050Z,16.98
2018-08-20T00:48:53.856Z,16.86
2018-08-20T00:51:29.764Z,16.78
2018-08-20T00:54:05.557Z,16.92
2018-08-20T00:56:41.445Z,16.87
2018-08-20T00:59:17.206Z,16.86
2018-08-20T01:01:52.997Z,16.88
2018-08-20T01:04:28.824Z,16.83
2018-08-20T01:07:04.766Z,16.89
2018-08-20T01:09:40.518Z,16.81
2018-08-20T01:12:16.516Z,16.84
2018-08-20T01:14:52.588Z,16.79
2018-08-20T01:17:28.371Z,16.81
2018-08-20T01:20:04.234Z,16.53
2018-08-20T01:22:40.017Z,16.01
2018-08-20T01:25:15.743Z,15.22
2018-08-20T01:27:51.649Z,15.00
2018-08-20T01:30:27.289Z,14.98
2018-08-20T01:33:10.073Z,15.27
2018-08-20T01:35:45.801Z,15.48
2018-08-20T01:38:21.560Z,15.62
2018-08-20T01:40:57.290Z,15.64
2018-08-20T01:43:33.102Z,15.30
2018-08-20T01:46:09.311Z,15.04
2018-08-20T01:48:45.606Z,14.91
2018-08-20T01:51:21.415Z,14.66
2018-08-20T01:53:57.394Z,14.48
2018-08-20T01:56:33.114Z,14.68
2018-08-20T01:59:09.165Z,14.69
2018-08-20T02:01:44.980Z,14.47
2018-08-20T02:04:20.785Z,14.76
2018-08-20T02:06:56.531Z,14.87
2018-08-20T02:09:32.332Z,15.10
2018-08-20T02:12:08.238Z,15.13
2018-08-20T02:14:44.016Z,15.26
2018-08-20T02:17:20.401Z,15.39
2018-08-20T02:19:56.278Z,15.38
2018-08-20T02:22:32.181Z,15.41
2018-08-20T02:25:08.247Z,15.51
2018-08-20T02:27:44.094Z,15.41
2018-08-20T02:30:19.975Z,14.96
2018-08-20T02:32:55.715Z,14.98
2018-08-20T02:35:31.582Z,15.12
2018-08-20T02:38:07.437Z,14.80
2018-08-20T02:40:43.272Z,14.60
2018-08-20T02:43:19.037Z,14.38
2018-08-20T02:45:55.276Z,14.21
2018-08-20T02:48:31.054Z,14.07
2018-08-20T02:51:06.833Z,13.85
2018-08-20T02:53:42.690Z,13.78
2018-08-20T02:56:18.596Z,14.12
2018-08-20T02:58:54.412Z,14.31
2018-08-20T03:01:30.216Z,14.39
2018-08-20T03:04:06.731Z,14.62
2018-08-20T03:06:42.677Z,14.61
2018-08-20T03:09:18.391Z,14.33
2018-08-20T03:11:54.270Z,14.24
2018-08-20T03:14:29.993Z,14.48
2018-08-20T03:17:05.833Z,14.73
2018-08-20T03:19:41.824Z,14.80
2018-08-20T03:22:17.738Z,14.84
2018-08-20T03:24:53.458Z,14.96
2018-08-20T03:27:29.379Z,14.80
2018-08-20T03:30:06.136Z,14.67
2018-08-20T03:32:41.955Z,14.69
2018-08-20T03:35:17.713Z,14.85
2018-08-20T03:37:53.522Z,14.79
2018-08-20T03:40:29.304Z,14.75
2018-08-20T03:43:05.228Z,14.74
2018-08-20T03:45:41.104Z,14.79
2018-08-20T03:48:17.074Z,14.86
2018-08-20T03:50:52.692Z,14.71
2018-08-20T03:53:28.539Z,14.84
2018-08-20T03:56:04.371Z,14.06
2018-08-20T03:58:40.223Z,13.53
2018-08-20T04:01:16.434Z,13.27
2018-08-20T04:03:52.110Z,13.19
2018-08-20T04:06:27.858Z,13.09
2018-08-20T04:09:04.015Z,13.12
2018-08-20T04:11:39.901Z,13.48
2018-08-20T04:14:15.792Z,13.54
2018-08-20T04:16:51.722Z,13.40
2018-08-20T04:19:27.877Z,13.42
2018-08-20T04:22:03.688Z,13.27
2018-08-20T04:24:39.573Z,13.41
2018-08-20T04:27:15.359Z,13.38
2018-08-20T04:29:51.534Z,13.63
2018-08-20T04:32:27.293Z,13.97
2018-08-20T04:35:03.213Z,14.05
2018-08-20T04:37:39.238Z,14.37
2018-08-20T04:40:15.037Z,14.65
2018-08-20T04:42:50.894Z,14.57
2018-08-20T04:45:26.690Z,14.67
2018-08-20T04:48:03.784Z,14.42
2018-08-20T04:50:39.770Z,14.56
2018-08-20T04:53:15.654Z,14.61
2018-08-20T04:55:51.529Z,15.01
2018-08-20T04:58:27.282Z,15.36
2018-08-20T05:01:03.057Z,15.69
2018-08-20T05:03:38.806Z,15.60
2018-08-20T05:06:14.776Z,15.65
2018-08-20T05:08:50.349Z,16.12
2018-08-20T05:11:26.249Z,16.33
2018-08-20T05:14:02.058Z,16.60
2018-08-20T05:16:38.254Z,16.43
2018-08-20T05:19:13.988Z,16.83
2018-08-20T05:21:49.840Z,17.16
2018-08-20T05:24:28.359Z,17.60
2018-08-20T05:27:04.445Z,17.95
2018-08-20T05:29:40.036Z,17.73
2018-08-20T05:32:15.836Z,17.92
2018-08-20T05:34:51.713Z,18.00
2018-08-20T05:37:31.796Z,18.02
2018-08-20T05:40:07.792Z,18.04
2018-08-20T05:42:43.592Z,18.43
2018-08-20T05:45:19.540Z,18.67
2018-08-20T05:47:55.421Z,19.01
2018-08-20T05:50:31.440Z,19.56
2018-08-20T05:53:09.661Z,19.89
2018-08-20T05:55:45.422Z,19.51
2018-08-20T05:58:21.075Z,19.11
2018-08-20T06:00:57.364Z,19.14
2018-08-20T06:03:33.088Z,19.39
2018-08-20T06:06:09.004Z,19.76
2018-08-20T06:08:44.833Z,19.76
2018-08-20T06:11:20.591Z,20.02
2018-08-20T06:13:56.522Z,19.85
2018-08-20T06:16:32.406Z,20.01
2018-08-20T06:19:08.619Z,20.56
2018-08-20T06:21:45.196Z,20.95
2018-08-20T06:24:22.082Z,20.79
2018-08-20T06:26:58.073Z,21.15
2018-08-20T06:29:34.194Z,21.68
2018-08-20T06:32:09.903Z,21.75
2018-08-20T06:34:45.808Z,22.14
2018-08-20T06:37:21.535Z,22.13
2018-08-20T06:39:57.830Z,22.38
2018-08-20T06:42:33.578Z,22.46
2018-08-20T06:45:14.111Z,22.85
2018-08-20T06:47:49.853Z,22.93
2018-08-20T06:50:20.660Z,22.91
2018-08-20T06:52:51.446Z,23.25
2018-08-20T06:55:22.352Z,22.94
2018-08-20T06:57:53.495Z,23.05
2018-08-20T07:00:24.396Z,23.59
2018-08-20T07:02:55.206Z,23.71
2018-08-20T07:05:26.114Z,23.81
2018-08-20T07:07:56.941Z,23.99
2018-08-20T07:10:31.954Z,23.80
2018-08-20T07:13:13.540Z,24.08
2018-08-20T07:15:44.469Z,24.07
2018-08-20T07:18:15.321Z,24.10
2018-08-20T07:20:46.177Z,24.23
2018-08-20T07:23:17.076Z,24.51
2018-08-20T07:25:48.260Z,24.98
2018-08-20T07:28:19.109Z,25.40
2018-08-20T07:30:50.326Z,25.66
2018-08-20T07:33:26.881Z,25.62
2018-08-20T07:36:02.580Z,25.66
2018-08-20T07:38:33.415Z,25.86
2018-08-20T07:41:04.337Z,25.66
2018-08-20T07:43:35.172Z,26.07
2018-08-20T07:46:06.349Z,26.53
2018-08-20T07:48:37.120Z,26.70
2018-08-20T07:51:07.971Z,26.72
2018-08-20T07:53:38.777Z,27.18
2018-08-20T07:56:15.493Z,27.55
2018-08-20T07:58:46.534Z,27.23
2018-08-20T08:01:17.340Z,26.82
2018-08-20T08:03:48.210Z,26.89
2018-08-20T08:06:19.042Z,26.91
2018-08-20T08:08:49.871Z,26.89
2018-08-20T08:11:20.992Z,27.11
2018-08-20T08:13:51.778Z,27.45
2018-08-20T08:16:22.629Z,28.02
2018-08-20T08:18:53.891Z,27.41
2018-08-20T08:21:24.765Z,27.97
2018-08-20T08:23:55.537Z,28.35
2018-08-20T08:26:26.436Z,27.93
2018-08-20T08:28:57.396Z,27.35
2018-08-20T08:31:28.498Z,27.05
2018-08-20T08:33:59.270Z,27.60
2018-08-20T08:36:30.742Z,28.26
2018-08-20T08:39:01.633Z,28.49
2018-08-20T08:41:32.560Z,28.36
2018-08-20T08:44:03.701Z,28.50
2018-08-20T08:46:34.804Z,28.86
2018-08-20T08:49:05.820Z,28.28
2018-08-20T08:51:37.049Z,28.18
2018-08-20T08:54:07.936Z,27.98
2018-08-20T08:56:38.828Z,28.24
2018-08-20T08:59:09.647Z,28.43
2018-08-20T09:08:40.751Z,29.04
2018-08-20T09:11:11.578Z,28.42
2018-08-20T09:13:42.466Z,28.23
2018-08-20T09:16:13.421Z,28.21
2018-08-20T09:18:44.264Z,28.90
2018-08-20T09:21:15.079Z,28.62
2018-08-20T09:23:45.883Z,28.24
2018-08-20T09:26:16.646Z,28.58
2018-08-20T09:28:47.481Z,29.52
2018-08-20T09:31:18.254Z,29.79
2018-08-20T09:33:49.016Z,29.71
2018-08-20T09:36:19.776Z,29.42
2018-08-20T09:38:53.829Z,29.24
2018-08-20T09:41:24.606Z,29.64
2018-08-20T09:43:55.975Z,29.39
2018-08-20T09:46:26.966Z,29.35
2018-08-20T09:48:57.818Z,29.21
2018-08-20T09:51:28.593Z,28.33
2018-08-20T09:53:59.403Z,28.76
2018-08-20T09:56:30.225Z,28.66
2018-08-20T09:59:01.540Z,29.09
2018-08-20T10:01:32.303Z,29.29
2018-08-20T10:04:03.199Z,29.16
2018-08-20T10:06:33.988Z,29.01
2018-08-20T10:09:05.748Z,28.89
2018-08-20T10:11:36.552Z,28.79
2018-08-20T10:14:07.516Z,29.61
2018-08-20T10:16:41.388Z,29.12
2018-08-20T10:19:12.243Z,29.43
2018-08-20T10:21:43.141Z,29.87
2018-08-20T10:24:13.964Z,29.58
2018-08-20T10:26:44.777Z,29.33
2018-08-20T10:29:16.014Z,29.24
2018-08-20T10:31:46.793Z,29.79
2018-08-20T10:34:17.599Z,29.50
2018-08-20T10:36:48.380Z,29.88
2018-08-20T10:39:19.181Z,30.57
2018-08-20T10:41:53.145Z,30.95
2018-08-20T10:44:24.043Z,30.85
2018-08-20T10:46:54.844Z,30.88
2018-08-20T10:49:25.648Z,29.60
2018-08-20T10:51:56.423Z,29.44
2018-08-20T10:54:27.233Z,28.86
2018-08-20T10:56:58.009Z,28.28
2018-08-20T10:59:28.909Z,28.03
2018-08-20T11:01:59.715Z,28.09
2018-08-20T11:04:30.776Z,27.97
2018-08-20T11:07:02.052Z,27.94
2018-08-20T11:09:32.937Z,27.54
2018-08-20T11:12:03.942Z,27.51
2018-08-20T11:14:34.811Z,27.63
2018-08-20T11:17:05.696Z,27.61
2018-08-20T11:19:36.515Z,27.20
2018-08-20T11:22:07.325Z,27.54
2018-08-20T11:24:38.149Z,27.70
2018-08-20T11:27:08.982Z,27.84
2018-08-20T11:29:40.074Z,28.16
2018-08-20T11:32:10.862Z,28.12
2018-08-20T11:34:41.692Z,28.37
2018-08-20T11:37:12.464Z,29.07
2018-08-20T11:39:43.299Z,29.29
2018-08-20T11:42:14.068Z,28.86
2018-08-20T11:44:44.973Z,29.21
2018-08-20T11:47:15.757Z,30.06
2018-08-20T11:49:47.738Z,30.42
2018-08-20T11:52:18.518Z,30.40
2018-08-20T11:54:50.194Z,30.60
2018-08-20T11:57:21.009Z,30.62
2018-08-20T11:59:51.857Z,30.59
2018-08-20T12:02:22.631Z,30.07
2018-08-20T12:04:53.447Z,30.17
2018-08-20T12:07:24.247Z,30.47
2018-08-20T12:09:55.325Z,30.20
2018-08-20T12:12:26.076Z,29.93
2018-08-20T12:14:57.074Z,29.29
2018-08-20T12:17:27.826Z,28.50
2018-08-20T12:19:58.613Z,28.39
2018-08-20T12:22:29.421Z,28.65
2018-08-20T12:25:00.417Z,29.40
2018-08-20T12:27:31.194Z,30.25
2018-08-20T12:30:02.232Z,30.86
2018-08-20T12:32:33.006Z,30.99
2018-08-20T12:35:03.845Z,31.52
2018-08-20T12:37:34.607Z,31.95
2018-08-20T12:40:05.776Z,31.06
2018-08-20T12:42:36.746Z,30.57
2018-08-20T12:45:08.014Z,30.31
2018-08-20T12:47:38.797Z,29.43
2018-08-20T12:50:09.644Z,29.03
2018-08-20T12:52:40.827Z,28.83
2018-08-20T12:55:11.660Z,28.51
2018-08-20T12:57:42.482Z,28.37
2018-08-20T13:00:13.422Z,28.15
2018-08-20T13:02:44.213Z,27.73
2018-08-20T13:05:15.025Z,27.51
2018-08-20T13:07:45.840Z,27.29
2018-08-20T13:10:16.717Z,27.05
2018-08-20T13:12:47.480Z,28.07
2018-08-20T13:15:18.343Z,28.62
2018-08-20T13:17:49.098Z,28.10
2018-08-20T13:20:19.939Z,28.62
2018-08-20T13:22:50.709Z,29.37
2018-08-20T13:25:21.590Z,29.66
2018-08-20T13:27:52.417Z,30.16
2018-08-20T13:30:23.234Z,30.16
2018-08-20T13:32:54.000Z,30.26
2018-08-20T13:35:24.866Z,29.58
2018-08-20T13:37:55.713Z,29.94
2018-08-20T13:40:26.556Z,30.02
2018-08-20T13:42:57.373Z,30.10
2018-08-20T13:45:33.983Z,30.64
2018-08-20T13:48:08.154Z,30.60
2018-08-20T13:50:39.039Z,30.10
2018-08-20T13:53:09.793Z,30.46
2018-08-20T13:55:40.636Z,31.31
2018-08-20T13:58:11.771Z,30.98
2018-08-20T14:00:42.623Z,30.53
2018-08-20T14:03:13.491Z,29.92
2018-08-20T14:05:44.532Z,29.25
2018-08-20T14:08:15.341Z,28.71
2018-08-20T14:10:46.235Z,28.30
2018-08-20T14:13:17.007Z,28.24
2018-08-20T14:15:47.900Z,28.12
2018-08-20T14:18:18.855Z,29.44
2018-08-20T14:21:00.425Z,29.80
2018-08-20T14:23:31.226Z,28.85
2018-08-20T14:26:02.442Z,28.67
2018-08-20T14:28:33.290Z,28.33
2018-08-20T14:31:04.232Z,30.46
2018-08-20T14:33:35.035Z,31.72
2018-08-20T14:36:05.973Z,33.05
2018-08-20T14:38:36.854Z,33.77
2018-08-20T14:41:07.766Z,33.04
2018-08-20T14:43:38.613Z,33.88
2018-08-20T14:46:14.613Z,34.49
2018-08-20T14:48:45.394Z,35.83
2018-08-20T14:51:16.453Z,36.35
2018-08-20T14:53:47.332Z,35.49
2018-08-20T14:57:42.479Z,35.26
2018-08-20T15:00:14.764Z,32.01
2018-08-20T15:02:45.675Z,30.79
2018-08-20T15:05:16.445Z,31.36
2018-08-20T15:07:47.260Z,30.78
2018-08-20T15:10:18.463Z,29.85
2018-08-20T15:12:49.373Z,29.50
2018-08-20T15:15:20.259Z,29.26
2018-08-20T15:17:51.284Z,28.66
2018-08-20T15:20:22.129Z,28.67
2018-08-20T15:22:52.999Z,28.23
2018-08-20T15:25:23.797Z,27.94
2018-08-20T15:27:54.637Z,26.69
2018-08-20T15:30:25.470Z,26.50
2018-08-20T15:32:56.308Z,26.34
2018-08-20T15:35:27.128Z,26.37
2018-08-20T15:37:57.994Z,26.33
2018-08-20T15:40:33.833Z,26.20
2018-08-20T15:43:04.887Z,26.07
2018-08-20T15:45:36.104Z,26.04
2018-08-20T15:48:07.002Z,26.16
2018-08-20T15:50:37.781Z,25.97
2018-08-20T15:53:08.666Z,25.89
2018-08-20T15:55:39.728Z,25.77
2018-08-20T15:58:10.642Z,25.66
2018-08-20T16:00:41.416Z,25.40
2018-08-20T16:03:12.418Z,25.30
2018-08-20T16:05:43.172Z,25.17
2018-08-20T16:08:14.045Z,25.11
2018-08-20T16:10:45.096Z,25.08
2018-08-20T16:13:15.942Z,25.08
2018-08-20T16:15:46.716Z,25.09
2018-08-20T16:18:20.055Z,24.94
2018-08-20T16:20:51.181Z,25.03
2018-08-20T16:23:25.054Z,24.93
2018-08-20T16:25:55.842Z,24.97
2018-08-20T16:28:26.815Z,24.87
2018-08-20T16:30:57.616Z,24.74
2018-08-20T16:33:28.491Z,24.52
2018-08-20T16:35:59.487Z,24.46
2018-08-20T16:38:30.472Z,24.44
2018-08-20T16:41:01.374Z,24.41
2018-08-20T16:43:32.668Z,24.32
2018-08-20T16:46:03.533Z,24.15
2018-08-20T16:48:34.341Z,24.01
2018-08-20T16:51:05.365Z,24.14
2018-08-20T16:53:36.902Z,24.01
2018-08-20T16:56:07.730Z,23.87
2018-08-20T16:58:38.664Z,23.74
2018-08-20T17:01:16.367Z,23.35
2018-08-20T17:03:47.295Z,23.24
2018-08-20T17:06:18.102Z,22.89
2018-08-20T17:08:49.043Z,22.90
2018-08-20T17:11:20.720Z,22.64
2018-08-20T17:13:54.025Z,22.58
2018-08-20T17:16:24.830Z,22.43
2018-08-20T17:18:55.717Z,22.06
2018-08-20T17:21:26.573Z,22.09
2018-08-20T17:23:57.809Z,21.80
2018-08-20T17:26:28.905Z,21.53
2018-08-20T17:29:05.614Z,21.44
2018-08-20T17:31:36.379Z,20.76
2018-08-20T17:34:07.330Z,20.69
2018-08-20T17:36:40.991Z,20.82
2018-08-20T17:39:11.912Z,21.19
2018-08-20T17:41:43.085Z,21.13
2018-08-20T17:44:13.969Z,21.29
2018-08-20T17:46:44.831Z,21.15
2018-08-20T17:49:19.826Z,20.90
2018-08-20T17:51:50.862Z,20.80
2018-08-20T17:54:21.712Z,20.86
2018-08-20T17:56:52.622Z,20.86
2018-08-20T17:59:24.529Z,20.60
2018-08-20T18:01:55.569Z,20.78
2018-08-20T18:04:26.775Z,20.96
2018-08-20T18:06:58.654Z,20.93
2018-08-20T18:09:29.689Z,20.96
2018-08-20T18:12:00.705Z,20.97
2018-08-20T18:14:31.928Z,20.78
2018-08-20T18:17:02.760Z,20.71
2018-08-20T18:19:34.207Z,20.69
2018-08-20T18:22:05.404Z,20.67
2018-08-20T18:24:36.398Z,20.54
2018-08-20T18:27:07.340Z,20.23
2018-08-20T18:29:39.313Z,20.17
2018-08-20T18:32:10.169Z,20.14
2018-08-20T18:34:41.307Z,20.12
2018-08-20T18:37:12.522Z,20.18
2018-08-20T18:39:46.118Z,20.45
2018-08-20T18:42:17.816Z,20.41
2018-08-20T18:44:49.389Z,20.46
2018-08-20T18:47:26.639Z,20.51
2018-08-20T18:49:59.199Z,20.52
2018-08-20T18:52:31.317Z,20.22
2018-08-20T18:55:03.728Z,19.63
2018-08-20T18:57:35.985Z,19.35
2018-08-20T19:00:12.576Z,19.61
2018-08-20T19:02:50.589Z,19.81
2018-08-20T19:05:22.185Z,19.82
2018-08-20T19:07:53.044Z,19.90
2018-08-20T19:10:27.850Z,19.86
2018-08-20T19:12:58.645Z,19.76
2018-08-20T19:15:41.375Z,19.58
2018-08-20T19:18:14.427Z,19.65
2018-08-20T19:20:46.069Z,19.51
2018-08-20T19:23:18.038Z,19.55
2018-08-20T19:25:49.101Z,19.46
2018-08-20T19:28:21.961Z,19.48
2018-08-20T19:30:56.412Z,19.36
2018-08-20T19:33:35.367Z,19.34
2018-08-20T19:36:06.303Z,19.23
2018-08-20T19:38:37.552Z,19.12
2018-08-20T19:41:16.984Z,18.83
2018-08-20T19:43:49.042Z,18.75
2018-08-20T19:46:29.057Z,18.66
2018-08-20T19:49:05.436Z,18.27
2018-08-20T19:51:37.940Z,18.21
2018-08-20T19:54:10.282Z,17.93
2018-08-20T19:56:41.215Z,17.64
2018-08-20T19:59:12.601Z,17.48
2018-08-20T20:01:43.506Z,17.49
2018-08-20T20:04:15.701Z,17.48
2018-08-20T20:06:46.640Z,17.52
2018-08-20T20:09:17.548Z,17.52
2018-08-20T20:11:50.451Z,17.63
2018-08-20T20:14:21.444Z,17.64
2018-08-20T20:16:54.452Z,17.86
2018-08-20T20:19:25.800Z,17.99
2018-08-20T20:21:56.645Z,17.79
2018-08-20T20:24:27.486Z,18.05
2018-08-20T20:26:58.322Z,18.13
2018-08-20T20:29:29.214Z,18.15
2018-08-20T20:32:00.108Z,18.20
2018-08-20T20:34:31.375Z,18.32
2018-08-20T20:37:02.401Z,18.44
2018-08-20T20:39:33.213Z,18.44
2018-08-20T20:44:55.534Z,18.42
2018-08-20T20:47:27.102Z,18.50
2018-08-20T20:49:58.296Z,18.46
2018-08-20T20:52:29.606Z,18.42
2018-08-20T20:55:00.585Z,17.89
2018-08-20T20:57:31.447Z,17.55
2018-08-20T21:00:08.053Z,17.44
2018-08-20T21:02:43.846Z,17.30
2018-08-20T21:05:19.498Z,17.02
2018-08-20T21:07:55.379Z,16.99
2018-08-20T21:10:35.293Z,16.61
2018-08-20T21:13:11.096Z,16.84
2018-08-20T21:15:58.197Z,16.80
2018-08-20T21:18:35.213Z,17.06
2018-08-20T21:21:11.099Z,17.27
2018-08-20T21:23:47.070Z,17.14
2018-08-20T21:26:22.872Z,16.87
2018-08-20T21:28:58.651Z,16.71
2018-08-20T21:31:39.098Z,16.90
2018-08-20T21:34:14.857Z,16.96
2018-08-20T21:36:50.894Z,16.80
2018-08-20T21:39:27.129Z,16.73
2018-08-20T21:42:02.820Z,16.75
2018-08-20T21:44:38.738Z,16.90
2018-08-20T21:47:22.409Z,16.90
2018-08-20T21:49:58.533Z,17.02
2018-08-20T21:52:35.185Z,16.91
2018-08-20T21:55:11.527Z,16.82
2018-08-20T21:57:58.198Z,16.44
2018-08-20T22:00:34.145Z,16.44
2018-08-20T22:03:11.381Z,16.11
2018-08-20T22:05:47.116Z,15.66
2018-08-20T22:08:22.954Z,15.17
2018-08-20T22:10:58.948Z,15.01
2018-08-20T22:13:34.555Z,15.15
2018-08-20T22:16:23.793Z,15.10
2018-08-20T22:19:00.146Z,15.26
2018-08-20T22:21:36.039Z,15.28
2018-08-20T22:24:11.853Z,15.52
2018-08-20T22:26:56.881Z,15.69
2018-08-20T22:29:37.791Z,15.61
2018-08-20T22:32:13.556Z,15.54
2018-08-20T22:34:49.345Z,15.88
2018-08-20T22:37:25.216Z,15.98
2018-08-20T22:40:06.228Z,16.02
2018-08-20T22:42:50.361Z,15.99
2018-08-20T22:45:26.162Z,15.66
2018-08-20T22:48:02.065Z,15.55
2018-08-20T22:50:37.875Z,15.44
2018-08-20T22:53:15.120Z,15.44
2018-08-20T22:56:01.705Z,15.31
2018-08-20T22:58:37.542Z,15.30
2018-08-20T23:01:13.410Z,15.24
2018-08-20T23:03:49.237Z,15.29
2018-08-20T23:06:25.359Z,15.01
2018-08-20T23:09:14.726Z,15.10
2018-08-20T23:11:50.539Z,14.86
2018-08-20T23:14:26.663Z,14.66
2018-08-20T23:17:02.532Z,14.63
2018-08-20T23:19:38.355Z,14.70
2018-08-20T23:22:14.070Z,14.77
2018-08-20T23:24:56.929Z,14.60
2018-08-20T23:27:36.899Z,14.76
2018-08-20T23:30:14.038Z,14.85
2018-08-20T23:32:50.497Z,15.03
2018-08-20T23:35:27.364Z,14.71
2018-08-20T23:38:03.721Z,14.63
2018-08-20T23:40:39.626Z,14.51
2018-08-20T23:43:15.369Z,14.26
2018-08-20T23:45:51.324Z,13.76
2018-08-20T23:48:27.040Z,13.54
2018-08-20T23:51:06.777Z,13.41
2018-08-20T23:53:42.394Z,13.48
2018-08-20T23:56:18.313Z,13.53
2018-08-20T23:58:54.164Z,13.51
